Time;durP1;ratioP1;P1;durP2;ratioP2;P2;SDS_P1;SDS_P2;PMS_P1;PMS_P2;Temp;Humidity;BMP_temperature;BMP_pressure;BME280_temperature;BME280_humidity;BME280_pressure;Samples;Min_cycle;Max_cycle;Signal;HPM_P1;HPM_P2
2022/01/03 00:01:17;;;;;;;2.53;1.70;;;;;;;8.36;100.00;96190.09;5095702;28;20492;-76
2022/01/03 00:03:45;;;;;;;4.60;1.73;;;;;;;8.46;100.00;96198.44;5079403;28;20426;-78
2022/01/03 00:06:12;;;;;;;7.23;1.77;;;;;;;8.50;100.00;96199.34;5099760;28;20464;-78
2022/01/03 00:08:43;;;;;;;4.73;2.20;;;;;;;8.53;100.00;96219.03;5082975;28;20463;-78
2022/01/03 00:11:12;;;;;;;2.50;2.00;;;;;;;8.41;100.00;96182.78;5117795;28;20414;-78
2022/01/03 00:13:44;;;;;;;4.60;2.40;;;;;;;8.61;100.00;96199.78;5078477;28;20432;-76
2022/01/03 00:16:11;;;;;;;3.40;1.70;;;;;;;8.60;100.00;96203.50;5094863;28;20477;-76
2022/01/03 00:18:38;;;;;;;4.13;2.20;;;;;;;8.60;100.00;96195.59;5094817;28;21011;-76
2022/01/03 00:21:16;;;;;;;3.00;2.03;;;;;;;8.53;100.00;96176.88;5094393;28;20473;-76
2022/01/03 00:23:52;;;;;;;3.77;2.20;;;;;;;8.60;100.00;96171.88;5078043;28;20454;-76
2022/01/03 00:26:26;;;;;;;2.93;1.80;;;;;;;8.67;100.00;96177.44;5094514;28;20472;-76
2022/01/03 00:28:59;;;;;;;3.63;2.27;;;;;;;8.73;100.00;96183.31;5094308;28;20453;-78
2022/01/03 00:31:37;;;;;;;2.80;1.87;;;;;;;8.63;100.00;96173.09;5080798;28;20423;-78
2022/01/03 00:34:07;;;;;;;4.93;2.17;;;;;;;8.69;100.00;96179.75;5080460;28;20430;-78
2022/01/03 00:36:35;;;;;;;1.70;1.60;;;;;;;8.73;100.00;96191.22;5116118;28;20439;-78
2022/01/03 00:39:05;;;;;;;2.70;1.83;;;;;;;8.72;100.00;96193.06;5115788;28;20457;-78
2022/01/03 00:41:31;;;;;;;7.60;2.40;;;;;;;8.74;100.00;96190.91;5097692;28;20980;-78
2022/01/03 00:43:58;;;;;;;2.83;2.10;;;;;;;8.62;100.00;96180.25;5097361;28;20473;-78
2022/01/03 00:46:27;;;;;;;3.07;2.03;;;;;;;8.72;100.00;96187.81;5115097;28;20517;-76
2022/01/03 00:48:54;;;;;;;2.50;1.80;;;;;;;8.75;100.00;96187.16;5093442;28;20875;-76
2022/01/03 00:51:21;;;;;;;2.27;2.07;;;;;;;8.65;100.00;96166.44;5111958;28;20480;-76
2022/01/03 00:53:49;;;;;;;3.97;1.67;;;;;;;8.62;100.00;96159.16;5076805;28;20438;-76
2022/01/03 00:56:27;;;;;;;5.90;2.13;;;;;;;8.71;100.00;96173.09;5076720;28;20461;-76
2022/01/03 00:59:22;;;;;;;2.30;2.10;;;;;;;8.75;100.00;96168.72;5110886;28;20442;-76
2022/01/03 01:01:53;;;;;;;4.20;1.50;;;;;;;8.64;100.00;96153.56;5076438;28;20513;-76
2022/01/03 01:04:22;;;;;;;3.90;2.33;;;;;;;8.63;100.00;96144.13;5093508;28;20446;-76
2022/01/03 01:06:56;;;;;;;3.20;1.80;;;;;;;8.73;100.00;96151.69;5077420;28;20949;-76
2022/01/03 01:09:26;;;;;;;2.50;1.90;;;;;;;8.65;100.00;96134.03;5093839;28;20442;-76
2022/01/03 01:11:55;;;;;;;2.70;2.30;;;;;;;8.64;100.00;96122.72;5093323;28;20430;-76
2022/01/03 01:14:27;;;;;;;5.10;2.40;;;;;;;8.72;100.00;96121.16;5077359;28;20454;-78
2022/01/03 01:16:55;;;;;;;4.60;2.07;;;;;;;8.79;100.00;96118.75;5080777;28;21017;-79
2022/01/03 01:19:22;;;;;;;3.57;1.60;;;;;;;8.73;100.00;96120.06;5097733;28;20482;-78
2022/01/03 01:21:53;;;;;;;5.73;2.13;;;;;;;8.77;100.00;96137.53;5081106;28;20990;-78
2022/01/03 01:24:23;;;;;;;2.93;1.83;;;;;;;8.83;100.00;96128.38;5080684;28;20441;-78
2022/01/03 01:29:39;;;;;;;13.57;2.47;;;;;;;8.87;100.00;96128.50;5093225;28;20459;-78
2022/01/03 01:32:09;;;;;;;3.77;1.30;;;;;;;8.86;100.00;96111.13;5097689;28;20445;-78
2022/01/03 01:34:40;;;;;;;4.53;2.30;;;;;;;8.82;100.00;96110.25;5097786;28;20442;-78
2022/01/03 01:37:08;;;;;;;1.90;1.70;;;;;;;8.73;100.00;96091.06;5097022;28;20449;-78
2022/01/03 01:39:40;;;;;;;4.33;1.80;;;;;;;8.75;100.00;96086.22;5096905;28;20944;-78
2022/01/03 01:42:13;;;;;;;3.00;1.83;;;;;;;8.83;100.00;96080.16;5080157;28;20485;-78
2022/01/03 01:44:47;;;;;;;2.80;1.70;;;;;;;8.93;100.00;96111.38;5079895;28;20503;-78
2022/01/03 01:47:17;;;;;;;2.97;1.93;;;;;;;8.84;100.00;96093.00;5080192;28;21005;-78
2022/01/03 01:49:47;;;;;;;2.33;2.13;;;;;;;8.88;100.00;96098.41;5096769;28;20438;-78
2022/01/03 01:52:23;;;;;;;4.07;2.47;;;;;;;8.86;100.00;96105.84;5097076;28;20427;-78
2022/01/03 01:54:58;;;;;;;3.30;2.10;;;;;;;8.80;100.00;96102.63;5096508;28;20452;-78
2022/01/03 01:58:13;;;;;;;3.90;2.00;;;;;;;8.66;100.00;96090.78;5079580;28;20437;-78
2022/01/03 02:00:52;;;;;;;2.43;1.70;;;;;;;8.48;100.00;96076.94;5089498;28;20960;-78
2022/01/03 02:03:52;;;;;;;3.80;1.80;;;;;;;8.50;100.00;96077.38;5080427;28;20442;-79
2022/01/03 02:06:46;;;;;;;4.70;2.27;;;;;;;8.46;100.00;96084.38;5096146;28;20499;-78
2022/01/03 02:09:35;;;;;;;2.93;1.57;;;;;;;8.41;100.00;96071.38;5095211;28;20507;-78
2022/01/03 02:12:05;;;;;;;7.53;2.00;;;;;;;8.42;100.00;96088.75;5081638;28;20427;-78
2022/01/03 02:14:37;;;;;;;4.93;4.50;;;;;;;8.30;100.00;96200.00;5081783;28;20831;-78
2022/01/03 02:17:09;;;;;;;5.40;1.30;;;;;;;6.72;100.00;96211.84;5099146;28;20941;-78
2022/01/03 02:19:37;;;;;;;1.40;0.90;;;;;;;6.52;100.00;96223.66;5100495;28;20469;-79
2022/01/03 02:22:10;;;;;;;0.93;0.87;;;;;;;6.06;100.00;96180.19;5100469;28;20461;-76
2022/01/03 02:24:44;;;;;;;0.90;0.80;;;;;;;5.95;100.00;96205.13;5081052;28;20505;-77
2022/01/03 02:27:11;;;;;;;4.30;0.90;;;;;;;5.82;100.00;96206.69;5097092;28;20426;-76
2022/01/03 02:29:38;;;;;;;0.67;0.60;;;;;;;5.87;100.00;96232.78;5096782;28;20454;-77
2022/01/03 02:32:05;;;;;;;0.73;0.73;;;;;;;5.76;100.00;96207.13;5096477;28;20441;-77
2022/01/03 02:34:33;;;;;;;1.00;0.80;;;;;;;5.80;100.00;96198.34;5079896;28;20442;-77
2022/01/03 02:37:01;;;;;;;1.47;0.70;;;;;;;5.88;100.00;96192.41;5096687;28;20470;-79
2022/01/03 02:39:28;;;;;;;0.90;0.70;;;;;;;5.82;100.00;96148.22;5101359;28;20987;-79
2022/01/03 02:41:55;;;;;;;1.50;0.80;;;;;;;6.01;100.00;96177.69;5100643;28;20492;-79
2022/01/03 02:44:23;;;;;;;0.90;0.70;;;;;;;5.83;100.00;96155.00;5083777;28;20809;-79
2022/01/03 02:46:49;;;;;;;1.90;0.80;;;;;;;5.90;100.00;96165.88;5118541;28;20422;-79
2022/01/03 02:49:16;;;;;;;1.43;0.80;;;;;;;5.79;100.00;96148.81;5099405;28;20450;-79
2022/01/03 02:51:44;;;;;;;1.20;1.10;;;;;;;5.82;100.00;96150.84;5099992;28;20435;-79
2022/01/03 02:54:13;;;;;;;0.73;0.73;;;;;;;5.98;100.00;96169.63;5099699;28;20450;-79
2022/01/03 02:56:42;;;;;;;0.70;0.70;;;;;;;5.87;100.00;96167.22;5100035;28;20502;-79
2022/01/03 02:59:14;;;;;;;2.50;0.70;;;;;;;5.81;100.00;96181.53;5083074;28;20461;-79
2022/01/03 03:01:45;;;;;;;0.90;0.77;;;;;;;5.92;100.00;96188.13;5096422;28;20502;-77
2022/01/03 03:04:14;;;;;;;2.40;0.70;;;;;;;5.93;100.00;96178.41;5095992;28;20464;-77
2022/01/03 03:06:40;;;;;;;0.77;0.70;;;;;;;5.89;100.00;96209.69;5095832;28;20449;-77
2022/01/03 03:09:08;;;;;;;1.37;1.20;;;;;;;5.87;100.00;96192.66;5078854;28;21047;-76
2022/01/03 03:11:36;;;;;;;1.47;0.73;;;;;;;6.05;100.00;96230.34;5079107;28;20439;-77
2022/01/03 03:14:04;;;;;;;1.53;0.90;;;;;;;6.12;100.00;96220.19;5095641;28;20491;-77
2022/01/03 03:16:31;;;;;;;2.97;0.80;;;;;;;6.09;100.00;96205.81;5078946;28;20465;-76
2022/01/03 03:18:58;;;;;;;1.10;0.80;;;;;;;6.00;100.00;96188.47;5078810;28;20462;-77
2022/01/03 03:21:29;;;;;;;0.80;0.80;;;;;;;6.13;100.00;96198.88;5094589;28;20471;-77
2022/01/03 03:23:58;;;;;;;1.73;0.87;;;;;;;6.11;100.00;96182.66;5113868;28;20415;-77
2022/01/03 03:26:25;;;;;;;0.70;0.70;;;;;;;6.03;100.00;96188.66;5095938;28;20447;-79
2022/01/03 03:28:52;;;;;;;1.00;0.90;;;;;;;6.11;100.00;96221.25;5099518;28;20458;-79
2022/01/03 03:31:19;;;;;;;3.80;0.87;;;;;;;6.02;100.00;96204.72;5099236;28;20444;-79
2022/01/03 03:33:46;;;;;;;0.80;0.70;;;;;;;5.99;100.00;96202.66;5082537;28;20541;-79
2022/01/03 03:36:13;;;;;;;0.90;0.80;;;;;;;5.98;100.00;96229.97;5099355;28;20438;-79
2022/01/03 03:38:42;;;;;;;2.10;0.80;;;;;;;5.92;100.00;96203.88;5095642;28;20473;-77
2022/01/03 03:41:13;;;;;;;1.40;1.00;;;;;;;6.01;100.00;96211.81;5095452;28;20828;-77
2022/01/03 03:43:44;;;;;;;1.90;0.90;;;;;;;6.05;100.00;96212.75;5095336;28;20804;-77
2022/01/03 03:46:12;;;;;;;1.93;1.10;;;;;;;6.02;100.00;96215.19;5078296;28;20464;-77
2022/01/03 03:48:39;;;;;;;2.13;1.30;;;;;;;6.01;100.00;96224.13;5095064;28;20511;-80
2022/01/03 03:51:09;;;;;;;1.10;0.80;;;;;;;6.13;100.00;96240.88;5099395;28;20438;-80
2022/01/03 03:53:36;;;;;;;3.27;1.23;;;;;;;6.13;100.00;96245.34;5082392;28;20443;-80
2022/01/03 03:56:03;;;;;;;2.67;1.20;;;;;;;5.96;100.00;96234.75;5082926;28;20450;-80
2022/01/03 03:58:32;;;;;;;2.80;1.00;;;;;;;5.98;100.00;96229.97;5099662;28;20461;-80
2022/01/03 04:00:59;;;;;;;2.40;0.90;;;;;;;6.11;100.00;96223.88;5099420;28;20507;-80
2022/01/03 04:03:45;;;;;;;1.10;1.00;;;;;;;5.97;100.00;96242.31;5098875;28;20469;-79
2022/01/03 04:06:14;;;;;;;3.90;2.27;;;;;;;5.91;100.00;96228.56;5099215;28;20435;-80
2022/01/03 04:08:44;;;;;;;1.50;1.10;;;;;;;5.96;100.00;96246.03;5082817;28;20497;-80
2022/01/03 04:11:11;;;;;;;2.00;1.83;;;;;;;5.94;100.00;96248.16;5082236;28;20442;-80
2022/01/03 04:13:37;;;;;;;5.07;3.13;;;;;;;6.00;100.00;96259.31;5082600;28;20439;-79
2022/01/03 04:16:07;;;;;;;1.20;1.03;;;;;;;5.82;100.00;96224.28;5099502;28;20453;-79
2022/01/03 04:18:34;;;;;;;3.07;0.90;;;;;;;5.77;100.00;96224.41;5099243;28;20462;-79
2022/01/03 04:21:01;;;;;;;3.23;0.90;;;;;;;5.92;100.00;96245.84;5099047;28;20466;-79
2022/01/03 04:23:27;;;;;;;2.47;1.13;;;;;;;5.84;100.00;96230.00;5099367;28;20442;-79
2022/01/03 04:25:54;;;;;;;3.90;2.80;;;;;;;5.77;100.00;96216.53;5117968;28;20438;-79
2022/01/03 04:28:21;;;;;;;10.57;2.67;;;;;;;5.95;100.00;96257.59;5100417;28;20458;-79
2022/01/03 04:30:48;;;;;;;3.30;1.63;;;;;;;5.75;100.00;96223.94;5100839;28;20441;-79
2022/01/03 04:33:15;;;;;;;1.47;1.37;;;;;;;5.71;100.00;96225.59;5103311;28;20464;-79
2022/01/03 04:35:41;;;;;;;1.30;1.03;;;;;;;5.86;100.00;96249.63;5115404;28;20499;-78
2022/01/03 04:38:10;;;;;;;2.57;1.20;;;;;;;5.78;100.00;96250.34;5117296;28;20454;-78
2022/01/03 04:40:36;;;;;;;4.03;2.40;;;;;;;5.84;100.00;96270.13;5095188;28;20459;-79
2022/01/03 04:43:04;;;;;;;2.17;1.20;;;;;;;5.84;100.00;96269.34;5082383;28;20872;-79
2022/01/03 04:45:30;;;;;;;3.50;1.00;;;;;;;5.70;100.00;96243.16;5097740;28;20443;-79
2022/01/03 04:47:57;;;;;;;1.20;1.00;;;;;;;5.78;100.00;96247.72;5097370;28;20477;-79
2022/01/03 04:50:24;;;;;;;1.00;0.90;;;;;;;5.67;100.00;96235.13;5116008;28;20881;-79
2022/01/03 04:52:51;;;;;;;2.90;1.20;;;;;;;5.86;100.00;96254.88;5097154;28;20433;-78
2022/01/03 04:55:18;;;;;;;3.23;1.70;;;;;;;5.81;100.00;96248.97;5080435;28;20460;-78
2022/01/03 04:57:45;;;;;;;3.67;1.47;;;;;;;5.82;100.00;96259.16;5079391;28;20462;-78
2022/01/03 05:00:12;;;;;;;1.17;1.07;;;;;;;5.60;100.00;96233.66;5096451;28;20434;-78
2022/01/03 05:02:39;;;;;;;5.97;1.33;;;;;;;5.80;100.00;96253.44;5096753;28;20575;-78
2022/01/03 05:05:06;;;;;;;3.27;1.27;;;;;;;5.80;100.00;96253.44;5097126;28;21069;-78
2022/01/03 05:07:35;;;;;;;3.20;1.30;;;;;;;5.85;100.00;96258.56;5099322;28;20456;-78
2022/01/03 05:10:02;;;;;;;3.27;1.13;;;;;;;5.76;100.00;96239.38;5119047;28;20839;-78
2022/01/03 05:12:29;;;;;;;1.10;0.80;;;;;;;5.87;100.00;96258.25;5100222;28;20914;-78
2022/01/03 05:14:56;;;;;;;3.73;1.20;;;;;;;5.89;100.00;96264.00;5100620;28;20822;-78
2022/01/03 05:17:23;;;;;;;1.10;0.90;;;;;;;5.72;100.00;96229.75;5097932;28;20441;-78
2022/01/03 05:19:50;;;;;;;2.37;0.90;;;;;;;5.80;100.00;96237.69;5096908;28;21037;-78
2022/01/03 05:22:17;;;;;;;3.00;1.10;;;;;;;5.71;100.00;96231.59;5096205;28;20458;-77
2022/01/03 05:24:44;;;;;;;2.90;1.50;;;;;;;5.67;100.00;96253.47;5080200;28;21022;-78
2022/01/03 05:27:10;;;;;;;2.87;1.33;;;;;;;5.71;100.00;96262.31;5097043;28;20442;-78
2022/01/03 05:29:37;;;;;;;4.93;1.60;;;;;;;5.72;100.00;96248.13;5096884;28;20462;-78
2022/01/03 05:32:04;;;;;;;2.57;1.10;;;;;;;5.85;100.00;96263.81;5095820;28;20961;-78
2022/01/03 05:34:32;;;;;;;2.60;0.90;;;;;;;5.83;100.00;96260.72;5079273;28;20772;-78
2022/01/03 05:37:00;;;;;;;1.43;1.00;;;;;;;5.75;100.00;96248.31;5095416;28;20461;-78
2022/01/03 05:39:26;;;;;;;4.20;1.70;;;;;;;5.68;100.00;96240.06;5095032;28;20936;-78
2022/01/03 05:41:53;;;;;;;3.63;1.47;;;;;;;5.66;100.00;96244.06;5095165;28;20451;-78
2022/01/03 05:44:20;;;;;;;2.47;1.13;;;;;;;5.57;100.00;96226.41;5095060;28;20452;-78
2022/01/03 05:46:47;;;;;;;4.67;2.63;;;;;;;5.67;100.00;96245.63;5081627;28;20477;-78
2022/01/03 05:49:13;;;;;;;3.70;1.93;;;;;;;5.74;100.00;96259.06;5082079;28;20828;-78
2022/01/03 05:51:40;;;;;;;1.93;1.50;;;;;;;5.74;100.00;96262.47;5099572;28;20449;-77
2022/01/03 05:54:07;;;;;;;1.80;1.47;;;;;;;5.69;100.00;96270.47;5082259;28;20469;-78
2022/01/03 05:56:35;;;;;;;1.47;1.00;;;;;;;5.76;100.00;96276.09;5098646;28;20438;-78
2022/01/03 05:59:07;;;;;;;2.90;1.20;;;;;;;5.60;100.00;96257.28;5082964;28;20523;-78
2022/01/03 06:01:37;;;;;;;5.50;0.80;;;;;;;5.59;100.00;96250.47;5098776;28;20507;-78
2022/01/03 06:04:20;;;;;;;3.13;1.20;;;;;;;5.72;100.00;96275.13;5098726;28;20437;-77
2022/01/03 06:06:55;;;;;;;2.80;1.57;;;;;;;5.71;100.00;96260.44;5099094;28;20445;-77
2022/01/03 06:09:30;;;;;;;5.43;1.17;;;;;;;5.68;100.00;96250.56;5099576;28;20984;-78
2022/01/03 06:11:58;;;;;;;2.33;1.23;;;;;;;5.67;100.00;96250.84;5099255;28;20434;-78
2022/01/03 06:14:26;;;;;;;4.00;3.23;;;;;;;5.77;100.00;96272.41;5099040;28;20806;-79
2022/01/03 06:16:54;;;;;;;6.10;4.30;;;;;;;5.75;100.00;96248.31;5082508;28;20434;-78
2022/01/03 06:19:22;;;;;;;7.30;4.70;;;;;;;5.87;100.00;96276.63;5099057;28;20469;-78
2022/01/03 06:21:49;;;;;;;3.50;1.70;;;;;;;5.76;100.00;96251.72;5098067;28;20458;-78
2022/01/03 06:24:19;;;;;;;8.20;1.30;;;;;;;5.89;100.00;96270.03;5098661;28;20487;-78
2022/01/03 06:26:48;;;;;;;2.10;1.27;;;;;;;5.78;100.00;96249.56;5098008;28;20525;-78
2022/01/03 06:29:18;;;;;;;4.87;1.50;;;;;;;5.87;100.00;96264.28;5081622;28;20470;-78
2022/01/03 06:31:47;;;;;;;7.07;1.40;;;;;;;5.74;100.00;96232.84;5098245;28;20430;-78
2022/01/03 06:34:15;;;;;;;2.90;1.23;;;;;;;5.87;100.00;96253.00;5081035;28;20437;-78
2022/01/03 06:36:42;;;;;;;3.00;1.23;;;;;;;5.84;100.00;96261.47;5115484;28;20438;-77
2022/01/03 06:39:09;;;;;;;3.40;1.30;;;;;;;5.67;100.00;96243.78;5116036;28;20450;-77
2022/01/03 06:41:36;;;;;;;6.63;1.90;;;;;;;5.72;100.00;96243.66;5080788;28;20519;-78
2022/01/03 06:44:04;;;;;;;4.87;1.70;;;;;;;5.68;100.00;96244.53;5097112;28;21002;-78
2022/01/03 06:46:31;;;;;;;2.63;1.30;;;;;;;5.84;100.00;96258.84;5096989;28;20506;-77
2022/01/03 06:49:00;;;;;;;2.67;2.07;;;;;;;5.90;100.00;96268.22;5096719;28;20507;-78
2022/01/03 06:51:33;;;;;;;2.70;1.10;;;;;;;5.77;100.00;96261.91;5079895;28;20948;-77
2022/01/03 06:54:05;;;;;;;6.30;2.30;;;;;;;5.85;100.00;96266.44;5096438;28;20442;-77
2022/01/03 06:56:33;;;;;;;1.97;1.10;;;;;;;5.90;100.00;96276.84;5079318;28;20470;-77
2022/01/03 06:59:00;;;;;;;2.27;1.40;;;;;;;5.82;100.00;96264.41;5095953;28;20519;-77
2022/01/03 07:01:26;;;;;;;2.83;1.30;;;;;;;5.94;100.00;96282.28;5079083;28;20800;-77
2022/01/03 07:03:55;;;;;;;4.60;1.30;;;;;;;5.89;100.00;96272.66;5096019;28;20529;-77
2022/01/03 07:06:21;;;;;;;1.20;1.03;;;;;;;5.64;100.00;96241.75;5095915;28;21178;-77
2022/01/03 07:08:49;;;;;;;4.60;1.73;;;;;;;5.81;100.00;96267.31;5079559;28;21005;-77
2022/01/03 07:11:17;;;;;;;2.10;1.33;;;;;;;5.90;100.00;96273.47;5095743;28;20434;-77
2022/01/03 07:13:47;;;;;;;2.87;1.37;;;;;;;5.93;100.00;96283.34;5095799;28;20466;-77
2022/01/03 07:19:00;;;;;;;2.50;1.00;;;;;;;5.71;100.00;96252.59;5113911;28;20859;-77
2022/01/03 07:21:28;;;;;;;1.30;1.10;;;;;;;5.75;100.00;96263.28;5078586;28;20438;-77
2022/01/03 07:23:56;;;;;;;2.17;1.77;;;;;;;5.92;100.00;96290.44;5078652;28;20482;-77
2022/01/03 07:26:25;;;;;;;3.53;1.30;;;;;;;5.73;100.00;96271.41;5095716;28;20842;-77
2022/01/03 07:28:51;;;;;;;1.67;1.30;;;;;;;5.78;100.00;96278.41;5095362;28;20454;-77
2022/01/03 07:31:18;;;;;;;1.10;0.87;;;;;;;5.73;100.00;96271.41;5095900;28;20427;-77
2022/01/03 07:33:46;;;;;;;1.23;1.10;;;;;;;5.91;100.00;96288.91;5114235;28;20521;-77
2022/01/03 07:36:13;;;;;;;1.47;1.37;;;;;;;5.90;100.00;96283.94;5095224;28;20488;-77
2022/01/03 07:38:39;;;;;;;4.17;1.10;;;;;;;5.97;100.00;96284.31;5078605;28;20568;-75
2022/01/03 07:41:09;;;;;;;5.17;1.20;;;;;;;5.93;100.00;96288.59;5113674;28;20523;-75
2022/01/03 07:43:36;;;;;;;2.47;1.10;;;;;;;5.95;100.00;96286.44;5094982;28;20462;-75
2022/01/03 07:46:02;;;;;;;2.90;1.00;;;;;;;6.06;100.00;96293.03;5095658;28;20434;-75
2022/01/03 07:48:30;;;;;;;3.73;1.00;;;;;;;5.83;100.00;96252.06;5095491;28;20872;-75
2022/01/03 07:50:57;;;;;;;0.87;0.73;;;;;;;6.01;100.00;96287.91;5078054;28;20507;-75
2022/01/03 07:53:24;;;;;;;2.70;1.00;;;;;;;5.92;100.00;96266.06;5095051;28;20469;-75
2022/01/03 07:55:50;;;;;;;3.83;1.27;;;;;;;6.01;100.00;96293.16;5077999;28;20435;-75
2022/01/03 07:58:17;;;;;;;3.30;1.10;;;;;;;5.98;100.00;96300.81;5077716;28;20850;-75
2022/01/03 08:00:45;;;;;;;1.57;0.93;;;;;;;5.83;100.00;96281.69;5094325;28;20930;-75
2022/01/03 08:03:12;;;;;;;7.23;2.23;;;;;;;5.82;100.00;96288.03;5077506;28;20992;-74
2022/01/03 08:05:39;;;;;;;0.73;0.73;;;;;;;5.77;100.00;96288.13;5112802;28;20937;-75
2022/01/03 08:08:09;;;;;;;1.93;1.20;;;;;;;5.77;100.00;96271.63;5093584;28;20454;-77
2022/01/03 08:10:37;;;;;;;2.57;1.07;;;;;;;5.77;100.00;96266.38;5112610;28;20495;-74
2022/01/03 08:13:04;;;;;;;3.33;1.70;;;;;;;5.79;100.00;96272.88;5094236;28;20834;-74
2022/01/03 08:15:30;;;;;;;1.63;1.20;;;;;;;5.79;100.00;96272.09;5094503;28;20881;-75
2022/01/03 08:17:57;;;;;;;2.93;1.47;;;;;;;5.83;100.00;96286.94;5094104;28;20454;-74
2022/01/03 08:20:25;;;;;;;1.83;1.23;;;;;;;5.74;100.00;96283.47;5093968;28;20469;-74
2022/01/03 08:22:52;;;;;;;3.23;1.47;;;;;;;5.81;100.00;96283.84;5094279;28;20833;-74
2022/01/03 08:25:19;;;;;;;2.30;1.23;;;;;;;5.97;100.00;96297.44;5094359;28;20476;-75
2022/01/03 08:27:46;;;;;;;2.40;1.23;;;;;;;5.79;100.00;96282.59;5112314;28;20553;-75
2022/01/03 08:30:13;;;;;;;1.67;1.57;;;;;;;5.85;100.00;96297.13;5094006;28;20434;-75
2022/01/03 08:32:40;;;;;;;1.83;1.63;;;;;;;5.95;100.00;96320.56;5093947;28;20438;-74
2022/01/03 08:35:07;;;;;;;2.60;1.27;;;;;;;5.95;100.00;96312.69;5077022;28;20445;-75
2022/01/03 08:37:34;;;;;;;2.17;1.60;;;;;;;5.95;100.00;96314.53;5093650;28;20467;-75
2022/01/03 08:40:04;;;;;;;1.23;1.07;;;;;;;5.89;100.00;96306.00;5093540;28;20531;-75
2022/01/03 08:42:31;;;;;;;1.67;1.57;;;;;;;5.87;100.00;96295.75;5076818;28;20997;-75
2022/01/03 08:44:58;;;;;;;4.80;1.27;;;;;;;5.91;100.00;96299.41;5093785;28;20430;-75
2022/01/03 08:47:24;;;;;;;1.70;1.50;;;;;;;5.92;100.00;96308.03;5076621;28;20471;-75
2022/01/03 08:49:51;;;;;;;1.93;1.60;;;;;;;5.88;100.00;96293.94;5076698;28;20477;-75
2022/01/03 08:52:18;;;;;;;2.20;1.20;;;;;;;5.86;100.00;96302.09;5076636;28;20462;-75
2022/01/03 08:54:44;;;;;;;2.27;1.10;;;;;;;5.95;100.00;96320.56;5093428;28;20464;-75
2022/01/03 08:57:11;;;;;;;1.80;1.40;;;;;;;5.93;100.00;96302.50;5076448;28;20983;-75
2022/01/03 08:59:39;;;;;;;2.60;1.20;;;;;;;5.99;100.00;96299.75;5111758;28;20941;-75
2022/01/03 09:02:07;;;;;;;1.57;0.90;;;;;;;5.85;100.00;96295.28;5076206;28;20984;-75
2022/01/03 09:04:34;;;;;;;3.63;1.70;;;;;;;5.96;100.00;96297.72;5093422;28;20445;-75
2022/01/03 09:07:02;;;;;;;5.43;1.60;;;;;;;6.04;100.00;96300.44;5093755;28;20449;-75
2022/01/03 09:09:30;;;;;;;3.03;1.83;;;;;;;6.03;100.00;96316.47;5093333;28;20459;-75
2022/01/03 09:11:58;;;;;;;2.77;2.37;;;;;;;5.93;100.00;96318.25;5093381;28;20431;-75
2022/01/03 09:14:24;;;;;;;1.70;1.23;;;;;;;6.02;100.00;96323.56;5076791;28;20434;-75
2022/01/03 09:16:51;;;;;;;5.43;1.97;;;;;;;6.10;100.00;96335.19;5093311;28;20468;-75
2022/01/03 09:19:18;;;;;;;2.00;1.17;;;;;;;6.01;100.00;96323.84;5076238;28;20462;-75
2022/01/03 09:21:44;;;;;;;1.93;1.43;;;;;;;5.98;100.00;96319.97;5076154;28;20462;-75
2022/01/03 09:24:25;;;;;;;2.23;1.87;;;;;;;5.98;100.00;96319.97;5093289;28;20997;-75
2022/01/03 09:29:37;;;;;;;1.53;1.23;;;;;;;5.99;100.00;96326.75;5111746;28;21032;-75
2022/01/03 09:32:04;;;;;;;1.83;1.33;;;;;;;6.03;100.00;96332.22;5076508;28;20484;-75
2022/01/03 09:34:31;;;;;;;2.93;1.60;;;;;;;5.92;100.00;96324.56;5093466;28;20434;-75
2022/01/03 09:36:58;;;;;;;1.77;1.37;;;;;;;6.08;100.00;96329.47;5076818;28;20565;-75
2022/01/03 09:39:25;;;;;;;1.40;1.20;;;;;;;5.97;100.00;96317.66;5111598;28;20806;-75
2022/01/03 09:42:04;;;;;;;1.57;1.40;;;;;;;6.14;100.00;96323.81;5093061;28;20426;-75
2022/01/03 09:44:32;;;;;;;2.00;1.43;;;;;;;6.06;100.00;96314.03;5093050;28;20741;-75
2022/01/03 09:47:05;;;;;;;4.93;1.77;;;;;;;6.07;100.00;96312.94;5093394;28;20970;-75
2022/01/03 09:49:38;;;;;;;1.33;1.23;;;;;;;6.17;100.00;96317.97;5111272;28;21029;-77
2022/01/03 09:52:06;;;;;;;2.10;1.10;;;;;;;6.31;100.00;96330.28;5093228;28;20438;-75
2022/01/03 09:54:35;;;;;;;1.37;0.90;;;;;;;6.19;100.00;96323.69;5076230;28;20430;-75
2022/01/03 09:57:04;;;;;;;5.03;1.30;;;;;;;6.32;100.00;96339.69;5092796;28;20526;-75
2022/01/03 09:59:31;;;;;;;3.93;1.40;;;;;;;6.27;100.00;96332.69;5092770;28;20458;-75
2022/01/03 10:02:00;;;;;;;4.90;1.93;;;;;;;6.27;100.00;96322.19;5093048;28;20438;-75
2022/01/03 10:04:27;;;;;;;5.67;1.50;;;;;;;6.36;100.00;96341.41;5092911;28;20458;-75
2022/01/03 10:06:55;;;;;;;1.63;1.40;;;;;;;6.17;100.00;96317.97;5092416;28;20477;-74
2022/01/03 10:09:23;;;;;;;2.63;1.57;;;;;;;6.16;100.00;96302.53;5076199;28;20523;-74
2022/01/03 10:11:50;;;;;;;4.73;1.43;;;;;;;6.38;100.00;96323.50;5111100;28;20430;-74
2022/01/03 10:14:17;;;;;;;1.00;0.90;;;;;;;6.29;100.00;96327.16;5093037;28;20431;-76
2022/01/03 10:16:46;;;;;;;4.60;1.60;;;;;;;6.46;100.00;96324.66;5093021;28;20500;-76
2022/01/03 10:19:23;;;;;;;2.20;1.20;;;;;;;6.26;100.00;96310.16;5092842;28;20891;-76
2022/01/03 10:21:51;;;;;;;3.03;1.97;;;;;;;6.43;100.00;96328.66;5111377;28;20434;-76
2022/01/03 10:24:29;;;;;;;2.33;1.33;;;;;;;6.30;100.00;96324.25;5092880;28;20989;-76
2022/01/03 10:26:56;;;;;;;3.47;1.53;;;;;;;6.33;100.00;96305.25;5093022;28;20438;-76
2022/01/03 10:29:26;;;;;;;2.43;1.50;;;;;;;6.32;100.00;96302.94;5093032;28;20446;-76
2022/01/03 10:31:59;;;;;;;1.80;1.40;;;;;;;6.49;100.00;96316.16;5095245;28;20434;-75
2022/01/03 10:34:27;;;;;;;8.20;1.83;;;;;;;6.44;100.00;96296.06;5114664;28;20468;-75
2022/01/03 10:45:31;;;;;;;3.67;2.00;;;;;;;6.54;100.00;96305.53;5094282;28;20972;-75
2022/01/03 10:48:00;;;;;;;6.33;2.20;;;;;;;6.61;100.00;96310.38;5076400;28;20457;-75
2022/01/03 10:50:28;;;;;;;5.17;2.60;;;;;;;6.59;100.00;96308.06;5076296;28;20463;-75
2022/01/03 10:52:55;;;;;;;5.93;2.30;;;;;;;6.48;100.00;96289.13;5076179;28;20435;-75
2022/01/03 10:55:33;;;;;;;3.23;2.23;;;;;;;6.64;100.00;96307.13;5076052;28;20439;-77
2022/01/03 10:58:05;;;;;;;3.73;2.23;;;;;;;6.61;100.00;96287.50;5075868;28;20469;-75
2022/01/03 11:00:39;;;;;;;4.27;2.20;;;;;;;6.69;100.00;96299.16;5094022;28;20481;-75
2022/01/03 11:03:36;;;;;;;4.07;2.33;;;;;;;6.63;100.00;96289.84;5093724;28;20471;-75
2022/01/03 11:06:21;;;;;;;11.10;2.40;;;;;;;6.47;100.00;96261.31;5058750;28;20427;-75
2022/01/03 11:11:43;;;;;;;5.33;2.07;;;;;;;6.61;100.00;96260.47;5075805;28;20436;-75
2022/01/03 11:14:32;;;;;;;6.90;1.70;;;;;;;6.64;100.00;96263.25;5093877;28;20414;-75
2022/01/03 11:17:04;;;;;;;9.27;1.90;;;;;;;6.73;100.00;96269.34;5076414;28;21349;-78
2022/01/03 11:19:36;;;;;;;4.30;1.67;;;;;;;6.67;100.00;96260.03;5095261;28;20486;-76
2022/01/03 11:22:03;;;;;;;5.83;1.80;;;;;;;6.70;100.00;96237.66;5058880;28;20443;-75
2022/01/03 11:24:30;;;;;;;8.20;2.20;;;;;;;7.02;100.00;96271.47;5075307;28;20487;-75
2022/01/03 11:26:58;;;;;;;7.70;2.50;;;;;;;7.02;100.00;96253.06;5093590;28;20484;-75
2022/01/03 11:29:31;;;;;;;8.00;2.13;;;;;;;7.10;100.00;96252.31;5076355;28;20453;-75
2022/01/03 11:32:00;;;;;;;6.20;2.00;;;;;;;7.01;100.00;96238.38;5075315;28;20439;-75
2022/01/03 11:34:27;;;;;;;9.17;2.47;;;;;;;7.07;100.00;96242.41;5075210;28;20436;-75
2022/01/03 11:37:07;;;;;;;5.83;1.80;;;;;;;7.14;100.00;96257.75;5060401;28;20439;-75
2022/01/03 11:39:36;;;;;;;6.40;2.23;;;;;;;7.13;100.00;96250.94;5075209;28;20463;-75
2022/01/03 11:42:03;;;;;;;8.47;2.13;;;;;;;7.05;100.00;96241.16;5093192;28;20428;-75
2022/01/03 11:44:31;;;;;;;5.37;2.17;;;;;;;7.12;100.00;96249.38;5074405;28;20840;-75
2022/01/03 11:46:59;;;;;;;6.30;1.80;;;;;;;7.07;100.00;96237.13;5074893;28;20462;-75
2022/01/03 12:05:15;;;;;;;8.73;2.63;;;;;;;6.67;100.00;96211.97;5074122;28;20439;-76
2022/01/03 12:07:56;;;;;;;4.77;2.53;;;;;;;6.64;100.00;96213.34;5057734;28;20460;-76
2022/01/03 12:10:22;;;;;;;3.67;1.57;;;;;;;6.49;100.00;96214.53;5092608;28;20457;-76
2022/01/03 12:12:57;;;;;;;2.80;1.63;;;;;;;6.63;100.00;96219.69;5074553;28;20866;-76
2022/01/03 12:15:31;;;;;;;3.20;2.90;;;;;;;6.65;100.00;96227.25;5057603;28;21168;-78
2022/01/03 12:17:58;;;;;;;3.47;1.70;;;;;;;6.47;100.00;96206.19;5057335;28;20474;-76
2022/01/03 12:23:54;;;;;;;4.43;1.43;;;;;;;6.28;100.00;96191.69;5073658;28;20481;-76